createdAt,value
2022-11-04T00:03:01.071Z,9.55
2022-11-04T00:08:25.019Z,9.60
2022-11-04T00:13:30.155Z,9.61
2022-11-04T00:18:33.805Z,9.65
2022-11-04T00:23:56.530Z,9.70
2022-11-04T00:29:00.320Z,9.70
2022-11-04T00:34:03.983Z,9.86
2022-11-04T00:39:08.979Z,9.96
2022-11-04T00:44:12.736Z,9.96
2022-11-04T00:49:16.418Z,9.86
2022-11-04T00:54:21.458Z,9.89
2022-11-04T00:59:25.088Z,9.80
2022-11-04T01:04:28.811Z,9.78
2022-11-04T01:09:34.118Z,9.81
2022-11-04T01:14:38.043Z,9.82
2022-11-04T01:19:41.696Z,9.87
2022-11-04T01:24:46.714Z,9.77
2022-11-04T01:29:50.406Z,9.81
2022-11-04T01:34:54.075Z,9.74
2022-11-04T01:39:59.082Z,9.63
2022-11-04T01:45:02.811Z,9.57
2022-11-04T01:50:12.227Z,9.55
2022-11-04T01:55:21.369Z,9.38
2022-11-04T02:00:25.106Z,9.24
2022-11-04T02:05:30.526Z,9.16
2022-11-04T02:10:35.805Z,9.04
2022-11-04T02:15:47.158Z,8.96
2022-11-04T02:21:21.189Z,8.97
2022-11-04T02:27:10.072Z,8.81
2022-11-04T02:32:25.049Z,8.77
2022-11-04T02:37:36.179Z,8.67
2022-11-04T02:42:46.578Z,8.67
2022-11-04T02:47:56.609Z,8.65
2022-11-04T02:53:06.457Z,8.55
2022-11-04T02:58:14.896Z,8.61
2022-11-04T03:03:24.038Z,8.56
2022-11-04T03:08:32.034Z,8.53
2022-11-04T03:13:42.274Z,8.50
2022-11-04T03:18:56.301Z,8.49
2022-11-04T03:24:01.094Z,8.43
2022-11-04T03:29:17.642Z,8.44
2022-11-04T03:34:22.866Z,8.43
2022-11-04T03:39:26.731Z,8.44
2022-11-04T03:44:30.960Z,8.35
2022-11-04T03:49:36.094Z,8.34
2022-11-04T03:54:40.358Z,8.35
2022-11-04T04:00:06.924Z,8.29
2022-11-04T04:05:18.993Z,8.29
2022-11-04T04:10:41.976Z,8.28
2022-11-04T04:15:53.726Z,8.26
2022-11-04T04:21:02.963Z,8.24
2022-11-04T04:26:26.790Z,8.19
2022-11-04T04:31:50.278Z,8.10
2022-11-04T04:37:02.307Z,8.15
2022-11-04T04:42:24.869Z,8.15
2022-11-04T04:47:33.367Z,8.11
2022-11-04T04:52:42.279Z,8.10
2022-11-04T04:57:46.053Z,8.07
2022-11-04T05:02:50.117Z,8.04
2022-11-04T05:07:55.168Z,8.02
2022-11-04T05:13:18.077Z,7.98
2022-11-04T05:18:21.784Z,8.00
2022-11-04T05:23:26.834Z,8.03
2022-11-04T05:28:30.814Z,8.09
2022-11-04T05:33:34.502Z,8.15
2022-11-04T05:38:39.985Z,8.21
2022-11-04T05:43:43.662Z,8.27
2022-11-04T05:48:47.362Z,8.30
2022-11-04T05:53:52.447Z,8.34
2022-11-04T05:58:56.285Z,8.38
2022-11-04T06:04:01.001Z,8.41
2022-11-04T06:09:06.289Z,8.46
2022-11-04T06:14:13.563Z,8.46
2022-11-04T06:19:19.847Z,8.46
2022-11-04T06:24:24.967Z,8.44
2022-11-04T06:29:28.662Z,8.43
2022-11-04T06:34:32.363Z,8.41
2022-11-04T06:39:37.442Z,8.37
2022-11-04T06:44:41.109Z,8.40
2022-11-04T06:49:44.785Z,8.44
2022-11-04T06:54:49.821Z,8.48
2022-11-04T06:59:53.690Z,8.54
2022-11-04T07:10:03.301Z,8.65
2022-11-04T07:15:07.999Z,8.72
2022-11-04T07:20:13.559Z,8.76
2022-11-04T07:25:18.614Z,8.76
2022-11-04T07:30:22.320Z,8.72
2022-11-04T07:35:26.116Z,8.68
2022-11-04T07:40:31.300Z,8.65
2022-11-04T07:45:35.590Z,8.64
2022-11-04T07:50:40.863Z,8.61
2022-11-04T07:55:49.413Z,8.69
2022-11-04T08:00:59.534Z,8.84
2022-11-04T08:06:05.724Z,9.09
2022-11-04T08:11:17.309Z,9.33
2022-11-04T08:16:22.923Z,9.27
2022-11-04T08:21:26.807Z,9.46
2022-11-04T08:26:31.916Z,9.52
2022-11-04T08:31:36.217Z,9.61
2022-11-04T08:36:42.680Z,9.81
2022-11-04T08:41:48.152Z,9.98
2022-11-04T08:46:52.163Z,10.04
2022-11-04T08:51:57.201Z,10.13
2022-11-04T08:57:02.650Z,10.29
2022-11-04T09:02:06.420Z,10.42
2022-11-04T09:07:10.155Z,10.54
2022-11-04T09:12:15.127Z,10.61
2022-11-04T09:17:18.794Z,10.68
2022-11-04T09:22:22.537Z,10.74
2022-11-04T09:27:27.739Z,10.63
2022-11-04T09:32:31.421Z,10.62
2022-11-04T09:37:35.111Z,10.62
2022-11-04T09:42:53.685Z,10.67
2022-11-04T09:48:01.521Z,10.59
2022-11-04T09:53:13.985Z,10.75
2022-11-04T09:58:19.221Z,10.98
2022-11-04T10:03:38.574Z,11.10
2022-11-04T10:08:54.953Z,11.21
2022-11-04T10:14:16.059Z,11.14
2022-11-04T10:19:35.890Z,11.00
2022-11-04T10:24:43.911Z,11.15
2022-11-04T10:29:54.010Z,11.25
2022-11-04T10:35:01.893Z,11.46
2022-11-04T10:40:21.224Z,11.57
2022-11-04T10:45:35.305Z,11.72
2022-11-04T10:50:42.418Z,11.92
2022-11-04T10:55:55.957Z,12.27
2022-11-04T11:01:01.388Z,12.34
2022-11-04T11:06:16.968Z,12.59
2022-11-04T11:11:37.728Z,12.46
2022-11-04T11:16:42.818Z,12.70
2022-11-04T11:21:49.171Z,13.13
2022-11-04T11:26:55.793Z,13.22
2022-11-04T11:32:01.770Z,13.28
2022-11-04T11:37:07.607Z,13.24
2022-11-04T11:42:16.082Z,13.25
2022-11-04T11:47:23.852Z,13.37
2022-11-04T11:52:34.661Z,13.92
2022-11-04T12:03:21.533Z,16.39
2022-11-04T12:14:08.857Z,16.33
2022-11-04T12:19:31.136Z,18.11
2022-11-04T12:24:45.648Z,18.21
2022-11-04T12:30:03.248Z,18.23
2022-11-04T12:35:24.984Z,17.61
2022-11-04T12:40:30.201Z,17.11
2022-11-04T12:45:46.701Z,17.23
2022-11-04T12:51:04.808Z,18.57
2022-11-04T12:56:10.271Z,18.27
2022-11-04T13:01:19.526Z,18.02
2022-11-04T13:06:28.236Z,17.93
2022-11-04T13:11:37.138Z,17.53
2022-11-04T13:16:42.661Z,16.99
2022-11-04T13:21:48.457Z,16.61
2022-11-04T13:26:53.164Z,16.49
2022-11-04T13:32:03.858Z,16.34
2022-11-04T13:37:21.798Z,15.97
2022-11-04T13:43:41.947Z,15.61
2022-11-04T13:48:55.618Z,15.33
2022-11-04T13:54:00.672Z,15.13
2022-11-04T13:59:08.800Z,14.83
2022-11-04T14:04:30.401Z,14.83
2022-11-04T14:09:53.525Z,14.61
2022-11-04T14:15:06.087Z,14.47
2022-11-04T14:20:12.582Z,14.08
2022-11-04T14:25:25.783Z,13.82
2022-11-04T14:30:36.916Z,13.30
2022-11-04T14:35:40.678Z,12.90
2022-11-04T14:40:52.256Z,12.75
2022-11-04T14:45:57.100Z,12.61
2022-11-04T14:51:00.871Z,12.44
2022-11-04T14:56:13.329Z,12.31
2022-11-04T15:01:17.828Z,12.50
2022-11-04T15:06:35.208Z,12.63
2022-11-04T15:12:03.509Z,12.75
2022-11-04T15:17:07.282Z,12.64
2022-11-04T15:22:15.049Z,12.61
2022-11-04T15:27:25.467Z,12.60
2022-11-04T15:32:30.122Z,12.61
2022-11-04T15:37:43.653Z,12.57
2022-11-04T15:42:49.858Z,12.58
2022-11-04T15:48:25.755Z,12.44
2022-11-04T15:53:29.683Z,12.29
2022-11-04T15:58:35.501Z,12.27
2022-11-04T16:03:39.215Z,12.27
2022-11-04T16:08:43.060Z,12.15
2022-11-04T16:13:48.320Z,12.11
2022-11-04T16:18:54.698Z,12.11
2022-11-04T16:24:02.346Z,12.03
2022-11-04T16:29:10.704Z,11.97
2022-11-04T16:34:14.286Z,11.87
2022-11-04T16:39:17.886Z,11.78
2022-11-04T16:44:24.399Z,11.67
2022-11-04T16:49:28.209Z,11.63
2022-11-04T16:54:31.962Z,11.60
2022-11-04T16:59:37.031Z,11.45
2022-11-04T17:04:40.726Z,11.40
2022-11-04T17:09:44.476Z,11.33
2022-11-04T17:14:49.552Z,11.22
2022-11-04T17:19:53.258Z,11.18
2022-11-04T17:24:57.027Z,11.09
2022-11-04T17:30:02.307Z,11.04
2022-11-04T17:35:06.797Z,10.95
2022-11-04T17:40:14.721Z,10.90
2022-11-04T17:45:19.857Z,10.84
2022-11-04T17:50:23.917Z,10.80
2022-11-04T17:55:28.003Z,10.73
2022-11-04T18:00:33.133Z,10.67
2022-11-04T18:05:36.884Z,10.64
2022-11-04T18:10:40.550Z,10.65
2022-11-04T18:15:45.711Z,10.59
2022-11-04T18:20:49.738Z,10.57
2022-11-04T18:25:53.407Z,10.50
2022-11-04T18:30:58.469Z,10.47
2022-11-04T18:36:04.810Z,10.25
2022-11-04T18:41:08.497Z,10.15
2022-11-04T18:46:16.016Z,10.12
2022-11-04T18:51:22.594Z,10.03
2022-11-04T18:56:26.263Z,9.94
2022-11-04T19:01:33.839Z,9.82
2022-11-04T19:06:41.799Z,9.73
2022-11-04T19:11:45.771Z,9.73
2022-11-04T19:16:50.808Z,9.63
2022-11-04T19:21:54.489Z,9.44
2022-11-04T19:26:58.215Z,9.45
2022-11-04T19:32:03.336Z,9.38
2022-11-04T19:37:07.050Z,9.25
2022-11-04T19:42:31.601Z,9.28
2022-11-04T19:47:36.617Z,9.27
2022-11-04T19:52:40.428Z,9.17
2022-11-04T19:57:44.140Z,9.05
2022-11-04T20:02:49.317Z,9.03
2022-11-04T20:07:54.919Z,8.98
2022-11-04T20:13:16.321Z,8.97
2022-11-04T20:18:21.435Z,8.93
2022-11-04T20:23:25.154Z,8.89
2022-11-04T20:28:28.856Z,8.87
2022-11-04T20:33:33.850Z,8.86
2022-11-04T20:38:37.929Z,8.89
2022-11-04T20:43:41.985Z,8.89
2022-11-04T20:48:47.661Z,8.88
2022-11-04T20:53:55.866Z,8.95
2022-11-04T20:59:00.727Z,8.96
2022-11-04T21:04:07.719Z,8.99
2022-11-04T21:09:15.672Z,9.06
2022-11-04T21:14:20.238Z,9.14
2022-11-04T21:19:25.337Z,9.15
2022-11-04T21:24:29.064Z,9.24
2022-11-04T21:29:32.831Z,9.28
2022-11-04T21:34:38.177Z,9.28
2022-11-04T21:39:42.626Z,9.33
2022-11-04T21:44:46.370Z,9.37
2022-11-04T21:49:51.462Z,9.32
2022-11-04T21:54:55.180Z,9.31
2022-11-04T21:59:58.893Z,9.11
2022-11-04T22:05:03.981Z,9.04
2022-11-04T22:10:08.684Z,9.04
2022-11-04T22:15:12.374Z,9.01
2022-11-04T22:20:17.684Z,8.99
2022-11-04T22:25:21.405Z,8.94
2022-11-04T22:30:25.184Z,9.02
2022-11-04T22:35:30.434Z,8.98
2022-11-04T22:40:34.167Z,8.96
2022-11-04T22:45:39.636Z,8.88
2022-11-04T22:50:44.918Z,8.70
2022-11-04T22:55:48.626Z,8.63
2022-11-04T23:00:56.138Z,8.52
2022-11-04T23:06:02.608Z,8.49
2022-11-04T23:11:27.056Z,8.39
2022-11-04T23:16:48.506Z,8.32
2022-11-04T23:22:11.553Z,8.24
2022-11-04T23:27:35.492Z,8.14
2022-11-04T23:32:39.179Z,8.09
2022-11-04T23:37:44.245Z,8.00
2022-11-04T23:42:47.940Z,7.93
2022-11-04T23:48:14.346Z,7.86
2022-11-04T23:53:38.954Z,7.78
2022-11-04T23:59:00.291Z,7.71
